sensor_id;sensor_type;location;lat;lon;timestamp;temperature;humidity
10702;DHT22;5402;50.004;8.246;2024-03-07T00:00:03;5.40;99.90
10702;DHT22;5402;50.004;8.246;2024-03-07T00:02:32;5.20;99.90
10702;DHT22;5402;50.004;8.246;2024-03-07T00:04:59;5.20;99.90
10702;DHT22;5402;50.004;8.246;2024-03-07T00:07:26;5.10;99.90
10702;DHT22;5402;50.004;8.246;2024-03-07T00:09:53;5.00;99.90
10702;DHT22;5402;50.004;8.246;2024-03-07T00:12:21;4.90;99.90
10702;DHT22;5402;50.004;8.246;2024-03-07T00:14:48;4.90;99.90
10702;DHT22;5402;50.004;8.246;2024-03-07T00:17:18;4.90;99.90
10702;DHT22;5402;50.004;8.246;2024-03-07T00:19:45;4.80;99.90
10702;DHT22;5402;50.004;8.246;2024-03-07T00:22:13;4.70;99.90
10702;DHT22;5402;50.004;8.246;2024-03-07T00:24:40;4.70;99.90
10702;DHT22;5402;50.004;8.246;2024-03-07T00:27:08;4.70;99.90
10702;DHT22;5402;50.004;8.246;2024-03-07T00:29:35;4.80;99.90
10702;DHT22;5402;50.004;8.246;2024-03-07T00:32:03;4.80;99.90
10702;DHT22;5402;50.004;8.246;2024-03-07T00:34:31;4.80;99.90
10702;DHT22;5402;50.004;8.246;2024-03-07T00:36:58;4.80;99.90
10702;DHT22;5402;50.004;8.246;2024-03-07T00:39:25;4.80;99.90
10702;DHT22;5402;50.004;8.246;2024-03-07T00:41:52;4.90;99.90
10702;DHT22;5402;50.004;8.246;2024-03-07T00:44:18;4.80;99.90
10702;DHT22;5402;50.004;8.246;2024-03-07T00:46:45;4.60;99.90
10702;DHT22;5402;50.004;8.246;2024-03-07T00:49:12;4.50;99.90
10702;DHT22;5402;50.004;8.246;2024-03-07T00:51:40;4.40;99.90
10702;DHT22;5402;50.004;8.246;2024-03-07T00:54:07;4.30;99.90
10702;DHT22;5402;50.004;8.246;2024-03-07T00:56:33;4.30;99.90
10702;DHT22;5402;50.004;8.246;2024-03-07T00:59:01;4.20;99.90
10702;DHT22;5402;50.004;8.246;2024-03-07T01:01:28;4.30;99.90
10702;DHT22;5402;50.004;8.246;2024-03-07T01:03:55;4.30;99.90
10702;DHT22;5402;50.004;8.246;2024-03-07T01:06:21;4.20;99.90
10702;DHT22;5402;50.004;8.246;2024-03-07T01:08:50;4.30;99.90
10702;DHT22;5402;50.004;8.246;2024-03-07T01:11:17;4.30;99.90
10702;DHT22;5402;50.004;8.246;2024-03-07T01:13:44;4.30;99.90
10702;DHT22;5402;50.004;8.246;2024-03-07T01:16:11;4.30;99.90
10702;DHT22;5402;50.004;8.246;2024-03-07T01:18:39;4.20;99.90
10702;DHT22;5402;50.004;8.246;2024-03-07T01:21:06;4.20;99.90
10702;DHT22;5402;50.004;8.246;2024-03-07T01:23:34;4.20;99.90
10702;DHT22;5402;50.004;8.246;2024-03-07T01:26:02;4.20;99.90
10702;DHT22;5402;50.004;8.246;2024-03-07T01:28:29;4.00;99.90
10702;DHT22;5402;50.004;8.246;2024-03-07T01:30:57;3.90;99.90
10702;DHT22;5402;50.004;8.246;2024-03-07T01:33:24;3.80;99.90
10702;DHT22;5402;50.004;8.246;2024-03-07T01:35:51;3.80;99.90
10702;DHT22;5402;50.004;8.246;2024-03-07T01:38:18;3.90;99.90
10702;DHT22;5402;50.004;8.246;2024-03-07T01:40:45;3.90;99.90
10702;DHT22;5402;50.004;8.246;2024-03-07T01:43:13;3.90;99.90
10702;DHT22;5402;50.004;8.246;2024-03-07T01:45:40;4.60;99.90
10702;DHT22;5402;50.004;8.246;2024-03-07T01:48:09;3.90;99.90
10702;DHT22;5402;50.004;8.246;2024-03-07T01:50:36;4.20;99.90
10702;DHT22;5402;50.004;8.246;2024-03-07T01:53:04;4.40;99.90
10702;DHT22;5402;50.004;8.246;2024-03-07T01:55:32;4.50;99.90
10702;DHT22;5402;50.004;8.246;2024-03-07T01:57:59;4.70;99.90
10702;DHT22;5402;50.004;8.246;2024-03-07T02:00:30;4.90;99.90
10702;DHT22;5402;50.004;8.246;2024-03-07T02:02:57;5.00;99.90
10702;DHT22;5402;50.004;8.246;2024-03-07T02:05:23;5.00;99.90
10702;DHT22;5402;50.004;8.246;2024-03-07T02:07:51;5.00;99.90
10702;DHT22;5402;50.004;8.246;2024-03-07T02:10:18;5.10;99.90
10702;DHT22;5402;50.004;8.246;2024-03-07T02:12:45;5.10;99.90
10702;DHT22;5402;50.004;8.246;2024-03-07T02:15:11;5.20;99.90
10702;DHT22;5402;50.004;8.246;2024-03-07T02:17:40;5.20;99.90
10702;DHT22;5402;50.004;8.246;2024-03-07T02:20:09;5.20;99.90
10702;DHT22;5402;50.004;8.246;2024-03-07T02:22:38;5.30;99.90
10702;DHT22;5402;50.004;8.246;2024-03-07T02:25:05;5.20;99.90
10702;DHT22;5402;50.004;8.246;2024-03-07T02:27:35;5.20;99.90
10702;DHT22;5402;50.004;8.246;2024-03-07T02:30:01;5.30;99.90
10702;DHT22;5402;50.004;8.246;2024-03-07T02:32:29;5.30;99.90
10702;DHT22;5402;50.004;8.246;2024-03-07T02:34:56;5.30;99.90
10702;DHT22;5402;50.004;8.246;2024-03-07T02:37:22;5.30;99.90
10702;DHT22;5402;50.004;8.246;2024-03-07T02:39:50;5.30;99.90
10702;DHT22;5402;50.004;8.246;2024-03-07T02:42:17;5.20;99.90
10702;DHT22;5402;50.004;8.246;2024-03-07T02:44:44;5.20;99.90
10702;DHT22;5402;50.004;8.246;2024-03-07T02:47:11;5.20;99.90
10702;DHT22;5402;50.004;8.246;2024-03-07T02:49:38;5.20;99.90
10702;DHT22;5402;50.004;8.246;2024-03-07T02:52:05;5.20;99.90
10702;DHT22;5402;50.004;8.246;2024-03-07T02:54:32;5.20;99.90
10702;DHT22;5402;50.004;8.246;2024-03-07T02:57:01;5.20;99.90
10702;DHT22;5402;50.004;8.246;2024-03-07T02:59:27;5.10;99.90
10702;DHT22;5402;50.004;8.246;2024-03-07T03:01:54;5.10;99.90
10702;DHT22;5402;50.004;8.246;2024-03-07T03:04:22;5.10;99.90
10702;DHT22;5402;50.004;8.246;2024-03-07T03:06:48;5.00;99.90
10702;DHT22;5402;50.004;8.246;2024-03-07T03:09:16;5.00;99.90
10702;DHT22;5402;50.004;8.246;2024-03-07T03:11:43;5.00;99.90
10702;DHT22;5402;50.004;8.246;2024-03-07T03:14:11;5.00;99.90
10702;DHT22;5402;50.004;8.246;2024-03-07T03:16:41;5.00;99.90
10702;DHT22;5402;50.004;8.246;2024-03-07T03:19:08;5.00;99.90
10702;DHT22;5402;50.004;8.246;2024-03-07T03:21:35;4.90;99.90
10702;DHT22;5402;50.004;8.246;2024-03-07T03:24:02;4.90;99.90
10702;DHT22;5402;50.004;8.246;2024-03-07T03:26:29;4.90;99.90
10702;DHT22;5402;50.004;8.246;2024-03-07T03:28:57;4.80;99.90
10702;DHT22;5402;50.004;8.246;2024-03-07T03:31:25;4.80;99.90
10702;DHT22;5402;50.004;8.246;2024-03-07T03:33:51;4.80;99.90
10702;DHT22;5402;50.004;8.246;2024-03-07T03:36:18;4.80;99.90
10702;DHT22;5402;50.004;8.246;2024-03-07T03:38:45;4.70;99.90
10702;DHT22;5402;50.004;8.246;2024-03-07T03:41:15;4.70;99.90
10702;DHT22;5402;50.004;8.246;2024-03-07T03:43:42;4.70;99.90
10702;DHT22;5402;50.004;8.246;2024-03-07T03:46:09;4.70;99.90
10702;DHT22;5402;50.004;8.246;2024-03-07T03:48:38;4.60;99.90
10702;DHT22;5402;50.004;8.246;2024-03-07T03:51:07;4.60;99.90
10702;DHT22;5402;50.004;8.246;2024-03-07T03:53:34;4.60;99.90
10702;DHT22;5402;50.004;8.246;2024-03-07T03:56:00;4.50;99.90
10702;DHT22;5402;50.004;8.246;2024-03-07T03:58:30;4.50;99.90
10702;DHT22;5402;50.004;8.246;2024-03-07T04:00:57;4.60;99.90
10702;DHT22;5402;50.004;8.246;2024-03-07T04:03:25;4.60;99.90
10702;DHT22;5402;50.004;8.246;2024-03-07T04:05:53;4.60;99.90
10702;DHT22;5402;50.004;8.246;2024-03-07T04:08:20;4.60;99.90
10702;DHT22;5402;50.004;8.246;2024-03-07T04:10:47;4.60;99.90
10702;DHT22;5402;50.004;8.246;2024-03-07T04:13:14;4.60;99.90
10702;DHT22;5402;50.004;8.246;2024-03-07T04:15:40;4.60;99.90
10702;DHT22;5402;50.004;8.246;2024-03-07T04:18:07;4.60;99.90
10702;DHT22;5402;50.004;8.246;2024-03-07T04:20:34;4.60;99.90
10702;DHT22;5402;50.004;8.246;2024-03-07T04:23:02;4.60;99.90
10702;DHT22;5402;50.004;8.246;2024-03-07T04:25:29;4.60;99.90
10702;DHT22;5402;50.004;8.246;2024-03-07T04:27:56;4.60;99.90
10702;DHT22;5402;50.004;8.246;2024-03-07T04:30:23;4.70;99.90
10702;DHT22;5402;50.004;8.246;2024-03-07T04:32:50;4.70;99.90
10702;DHT22;5402;50.004;8.246;2024-03-07T04:35:17;4.70;99.90
10702;DHT22;5402;50.004;8.246;2024-03-07T04:37:44;4.70;99.90
10702;DHT22;5402;50.004;8.246;2024-03-07T04:40:12;4.70;99.90
10702;DHT22;5402;50.004;8.246;2024-03-07T04:42:42;4.70;99.90
10702;DHT22;5402;50.004;8.246;2024-03-07T04:45:10;4.70;99.90
10702;DHT22;5402;50.004;8.246;2024-03-07T04:47:38;4.70;99.90
10702;DHT22;5402;50.004;8.246;2024-03-07T04:50:06;4.60;99.90
10702;DHT22;5402;50.004;8.246;2024-03-07T04:52:33;4.70;99.90
10702;DHT22;5402;50.004;8.246;2024-03-07T04:55:00;4.70;99.90
10702;DHT22;5402;50.004;8.246;2024-03-07T04:57:28;4.70;99.90
10702;DHT22;5402;50.004;8.246;2024-03-07T04:59:54;4.60;99.90
10702;DHT22;5402;50.004;8.246;2024-03-07T05:02:22;4.60;99.90
10702;DHT22;5402;50.004;8.246;2024-03-07T05:04:49;4.50;99.90
10702;DHT22;5402;50.004;8.246;2024-03-07T05:07:17;4.50;99.90
10702;DHT22;5402;50.004;8.246;2024-03-07T05:09:44;4.50;99.90
10702;DHT22;5402;50.004;8.246;2024-03-07T05:12:11;4.40;99.90
10702;DHT22;5402;50.004;8.246;2024-03-07T05:14:39;4.40;99.90
10702;DHT22;5402;50.004;8.246;2024-03-07T05:17:05;4.40;99.90
10702;DHT22;5402;50.004;8.246;2024-03-07T05:19:34;4.40;99.90
10702;DHT22;5402;50.004;8.246;2024-03-07T05:22:01;4.30;99.90
10702;DHT22;5402;50.004;8.246;2024-03-07T05:24:30;4.30;99.90
10702;DHT22;5402;50.004;8.246;2024-03-07T05:26:58;4.30;99.90
10702;DHT22;5402;50.004;8.246;2024-03-07T05:29:24;4.20;99.90
10702;DHT22;5402;50.004;8.246;2024-03-07T05:31:53;4.20;99.90
10702;DHT22;5402;50.004;8.246;2024-03-07T05:34:20;4.20;99.90
10702;DHT22;5402;50.004;8.246;2024-03-07T05:36:49;4.10;99.90
10702;DHT22;5402;50.004;8.246;2024-03-07T05:39:17;4.10;99.90
10702;DHT22;5402;50.004;8.246;2024-03-07T05:41:44;4.10;99.90
10702;DHT22;5402;50.004;8.246;2024-03-07T05:44:12;4.10;99.90
10702;DHT22;5402;50.004;8.246;2024-03-07T05:46:40;4.10;99.90
10702;DHT22;5402;50.004;8.246;2024-03-07T05:49:12;4.00;99.90
10702;DHT22;5402;50.004;8.246;2024-03-07T05:51:39;4.00;99.90
10702;DHT22;5402;50.004;8.246;2024-03-07T05:54:10;4.00;99.90
10702;DHT22;5402;50.004;8.246;2024-03-07T05:56:39;4.00;99.90
10702;DHT22;5402;50.004;8.246;2024-03-07T05:59:06;4.00;99.90
10702;DHT22;5402;50.004;8.246;2024-03-07T06:01:35;4.00;99.90
10702;DHT22;5402;50.004;8.246;2024-03-07T06:04:04;4.00;99.90
10702;DHT22;5402;50.004;8.246;2024-03-07T06:06:33;4.00;99.90
10702;DHT22;5402;50.004;8.246;2024-03-07T06:09:02;3.90;99.90
10702;DHT22;5402;50.004;8.246;2024-03-07T06:11:33;3.90;99.90
10702;DHT22;5402;50.004;8.246;2024-03-07T06:13:59;3.90;99.90
10702;DHT22;5402;50.004;8.246;2024-03-07T06:16:28;3.90;99.90
10702;DHT22;5402;50.004;8.246;2024-03-07T06:18:58;3.90;99.90
10702;DHT22;5402;50.004;8.246;2024-03-07T06:21:25;3.90;99.90
10702;DHT22;5402;50.004;8.246;2024-03-07T06:23:53;3.80;99.90
10702;DHT22;5402;50.004;8.246;2024-03-07T06:26:24;3.80;99.90
10702;DHT22;5402;50.004;8.246;2024-03-07T06:29:03;3.80;99.90
10702;DHT22;5402;50.004;8.246;2024-03-07T06:31:30;3.80;99.90
10702;DHT22;5402;50.004;8.246;2024-03-07T06:33:57;3.80;99.90
10702;DHT22;5402;50.004;8.246;2024-03-07T06:36:24;3.90;99.90
10702;DHT22;5402;50.004;8.246;2024-03-07T06:38:52;3.90;99.90
10702;DHT22;5402;50.004;8.246;2024-03-07T06:41:19;3.90;99.90
10702;DHT22;5402;50.004;8.246;2024-03-07T06:43:46;3.90;99.90
10702;DHT22;5402;50.004;8.246;2024-03-07T06:46:15;3.90;99.90
10702;DHT22;5402;50.004;8.246;2024-03-07T06:48:42;3.90;99.90
10702;DHT22;5402;50.004;8.246;2024-03-07T06:51:09;3.90;99.90
10702;DHT22;5402;50.004;8.246;2024-03-07T06:53:36;4.00;99.90
10702;DHT22;5402;50.004;8.246;2024-03-07T06:56:05;4.00;99.90
10702;DHT22;5402;50.004;8.246;2024-03-07T06:58:32;4.10;99.90
10702;DHT22;5402;50.004;8.246;2024-03-07T07:00:59;4.10;99.90
10702;DHT22;5402;50.004;8.246;2024-03-07T07:03:27;4.20;99.90
10702;DHT22;5402;50.004;8.246;2024-03-07T07:05:54;4.20;99.90
10702;DHT22;5402;50.004;8.246;2024-03-07T07:08:20;4.20;99.90
10702;DHT22;5402;50.004;8.246;2024-03-07T07:10:49;4.20;99.90
10702;DHT22;5402;50.004;8.246;2024-03-07T07:13:17;4.30;99.90
10702;DHT22;5402;50.004;8.246;2024-03-07T07:15:44;4.30;99.90
10702;DHT22;5402;50.004;8.246;2024-03-07T07:18:11;4.40;99.90
10702;DHT22;5402;50.004;8.246;2024-03-07T07:20:39;4.50;99.90
10702;DHT22;5402;50.004;8.246;2024-03-07T07:23:06;4.50;99.90
10702;DHT22;5402;50.004;8.246;2024-03-07T07:25:32;4.60;99.90
10702;DHT22;5402;50.004;8.246;2024-03-07T07:27:59;4.60;99.90
10702;DHT22;5402;50.004;8.246;2024-03-07T07:30:28;4.70;99.90
10702;DHT22;5402;50.004;8.246;2024-03-07T07:32:54;4.70;99.90
10702;DHT22;5402;50.004;8.246;2024-03-07T07:35:22;4.80;99.90
10702;DHT22;5402;50.004;8.246;2024-03-07T07:37:50;4.80;99.90
10702;DHT22;5402;50.004;8.246;2024-03-07T07:40:21;4.90;99.90
10702;DHT22;5402;50.004;8.246;2024-03-07T07:42:50;5.00;99.90
10702;DHT22;5402;50.004;8.246;2024-03-07T07:45:18;5.00;99.90
10702;DHT22;5402;50.004;8.246;2024-03-07T07:47:48;5.20;99.90
10702;DHT22;5402;50.004;8.246;2024-03-07T07:50:16;5.20;99.90
10702;DHT22;5402;50.004;8.246;2024-03-07T07:52:46;5.20;99.90
10702;DHT22;5402;50.004;8.246;2024-03-07T07:55:14;5.30;99.90
10702;DHT22;5402;50.004;8.246;2024-03-07T07:57:44;5.40;99.90
10702;DHT22;5402;50.004;8.246;2024-03-07T08:00:13;5.40;99.90
10702;DHT22;5402;50.004;8.246;2024-03-07T08:02:49;5.40;99.90
10702;DHT22;5402;50.004;8.246;2024-03-07T08:05:16;5.40;99.90
10702;DHT22;5402;50.004;8.246;2024-03-07T08:07:44;5.50;99.90
10702;DHT22;5402;50.004;8.246;2024-03-07T08:10:11;5.50;99.90
10702;DHT22;5402;50.004;8.246;2024-03-07T08:12:38;5.50;99.90
10702;DHT22;5402;50.004;8.246;2024-03-07T08:15:07;5.50;99.90
10702;DHT22;5402;50.004;8.246;2024-03-07T08:17:39;5.60;99.90
10702;DHT22;5402;50.004;8.246;2024-03-07T08:20:11;5.60;99.90
10702;DHT22;5402;50.004;8.246;2024-03-07T08:22:38;5.60;99.90
10702;DHT22;5402;50.004;8.246;2024-03-07T08:25:06;5.50;99.90
10702;DHT22;5402;50.004;8.246;2024-03-07T08:27:35;5.60;99.90
10702;DHT22;5402;50.004;8.246;2024-03-07T08:30:03;5.60;99.90
10702;DHT22;5402;50.004;8.246;2024-03-07T08:32:31;5.70;99.90
10702;DHT22;5402;50.004;8.246;2024-03-07T08:34:59;5.80;99.90
10702;DHT22;5402;50.004;8.246;2024-03-07T08:37:28;5.80;99.90
10702;DHT22;5402;50.004;8.246;2024-03-07T08:39:55;6.00;99.90
10702;DHT22;5402;50.004;8.246;2024-03-07T08:42:21;6.20;99.90
10702;DHT22;5402;50.004;8.246;2024-03-07T08:44:48;6.30;99.90
10702;DHT22;5402;50.004;8.246;2024-03-07T08:47:15;6.40;99.90
10702;DHT22;5402;50.004;8.246;2024-03-07T08:49:42;6.50;99.90
10702;DHT22;5402;50.004;8.246;2024-03-07T08:52:09;6.60;99.90
10702;DHT22;5402;50.004;8.246;2024-03-07T08:54:37;6.80;99.90
10702;DHT22;5402;50.004;8.246;2024-03-07T08:57:04;6.90;99.90
10702;DHT22;5402;50.004;8.246;2024-03-07T08:59:33;7.00;99.90
10702;DHT22;5402;50.004;8.246;2024-03-07T09:01:59;7.20;99.90
10702;DHT22;5402;50.004;8.246;2024-03-07T09:04:27;7.30;99.90
10702;DHT22;5402;50.004;8.246;2024-03-07T09:06:54;7.60;99.90
10702;DHT22;5402;50.004;8.246;2024-03-07T09:09:20;7.60;99.90
10702;DHT22;5402;50.004;8.246;2024-03-07T09:11:48;7.70;99.90
10702;DHT22;5402;50.004;8.246;2024-03-07T09:14:15;7.40;99.90
10702;DHT22;5402;50.004;8.246;2024-03-07T09:16:42;7.10;99.90
10702;DHT22;5402;50.004;8.246;2024-03-07T09:19:10;6.90;99.90
10702;DHT22;5402;50.004;8.246;2024-03-07T09:21:39;6.90;99.90
10702;DHT22;5402;50.004;8.246;2024-03-07T09:24:06;6.90;99.90
10702;DHT22;5402;50.004;8.246;2024-03-07T09:26:33;6.90;99.90
10702;DHT22;5402;50.004;8.246;2024-03-07T09:29:02;7.00;99.90
10702;DHT22;5402;50.004;8.246;2024-03-07T09:31:31;7.00;99.90
10702;DHT22;5402;50.004;8.246;2024-03-07T09:33:58;7.00;99.90
10702;DHT22;5402;50.004;8.246;2024-03-07T09:36:25;7.00;99.90
10702;DHT22;5402;50.004;8.246;2024-03-07T09:38:51;7.10;99.90
10702;DHT22;5402;50.004;8.246;2024-03-07T09:41:18;7.10;99.90
10702;DHT22;5402;50.004;8.246;2024-03-07T09:43:46;7.10;99.90
10702;DHT22;5402;50.004;8.246;2024-03-07T09:46:16;7.10;99.90
10702;DHT22;5402;50.004;8.246;2024-03-07T09:48:43;7.10;99.90
10702;DHT22;5402;50.004;8.246;2024-03-07T09:51:10;7.10;99.90
10702;DHT22;5402;50.004;8.246;2024-03-07T09:53:39;7.20;99.90
10702;DHT22;5402;50.004;8.246;2024-03-07T09:56:07;7.20;99.90
10702;DHT22;5402;50.004;8.246;2024-03-07T09:58:37;7.30;99.90
10702;DHT22;5402;50.004;8.246;2024-03-07T10:01:05;7.50;99.90
10702;DHT22;5402;50.004;8.246;2024-03-07T10:03:41;7.70;99.90
10702;DHT22;5402;50.004;8.246;2024-03-07T10:06:10;7.60;99.90
10702;DHT22;5402;50.004;8.246;2024-03-07T10:08:37;7.70;99.90
10702;DHT22;5402;50.004;8.246;2024-03-07T10:11:04;7.70;99.90
10702;DHT22;5402;50.004;8.246;2024-03-07T10:13:31;8.00;99.90
10702;DHT22;5402;50.004;8.246;2024-03-07T10:15:58;8.10;99.90
10702;DHT22;5402;50.004;8.246;2024-03-07T10:18:26;8.20;99.90
10702;DHT22;5402;50.004;8.246;2024-03-07T10:20:54;8.30;99.90
10702;DHT22;5402;50.004;8.246;2024-03-07T10:23:21;8.40;99.90
10702;DHT22;5402;50.004;8.246;2024-03-07T10:25:48;8.40;99.90
10702;DHT22;5402;50.004;8.246;2024-03-07T10:28:16;8.30;99.90
10702;DHT22;5402;50.004;8.246;2024-03-07T10:30:43;8.20;99.90
10702;DHT22;5402;50.004;8.246;2024-03-07T10:33:11;8.00;99.90
10702;DHT22;5402;50.004;8.246;2024-03-07T10:35:39;8.00;99.90
10702;DHT22;5402;50.004;8.246;2024-03-07T10:38:07;7.90;99.90
10702;DHT22;5402;50.004;8.246;2024-03-07T10:40:37;7.80;99.90
10702;DHT22;5402;50.004;8.246;2024-03-07T10:43:10;7.90;99.90
10702;DHT22;5402;50.004;8.246;2024-03-07T10:45:43;8.00;99.90
10702;DHT22;5402;50.004;8.246;2024-03-07T10:48:16;8.10;99.90
10702;DHT22;5402;50.004;8.246;2024-03-07T10:50:55;8.20;99.90
10702;DHT22;5402;50.004;8.246;2024-03-07T10:53:31;8.40;99.90
10702;DHT22;5402;50.004;8.246;2024-03-07T10:56:16;8.50;99.90
10702;DHT22;5402;50.004;8.246;2024-03-07T10:58:53;8.40;99.90
10702;DHT22;5402;50.004;8.246;2024-03-07T11:01:26;8.60;99.90
10702;DHT22;5402;50.004;8.246;2024-03-07T11:03:54;8.50;99.90
10702;DHT22;5402;50.004;8.246;2024-03-07T11:06:23;8.40;99.90
10702;DHT22;5402;50.004;8.246;2024-03-07T11:08:52;8.40;99.90
10702;DHT22;5402;50.004;8.246;2024-03-07T11:11:20;8.20;99.90
10702;DHT22;5402;50.004;8.246;2024-03-07T11:13:49;8.10;99.90
10702;DHT22;5402;50.004;8.246;2024-03-07T11:16:16;8.20;99.90
10702;DHT22;5402;50.004;8.246;2024-03-07T11:21:50;8.50;99.90
10702;DHT22;5402;50.004;8.246;2024-03-07T11:24:25;8.60;99.90
10702;DHT22;5402;50.004;8.246;2024-03-07T11:26:54;8.70;99.90
10702;DHT22;5402;50.004;8.246;2024-03-07T11:29:39;8.60;99.90
10702;DHT22;5402;50.004;8.246;2024-03-07T11:32:08;8.60;99.90
10702;DHT22;5402;50.004;8.246;2024-03-07T11:34:38;8.60;99.90
10702;DHT22;5402;50.004;8.246;2024-03-07T11:37:06;8.40;99.90
10702;DHT22;5402;50.004;8.246;2024-03-07T11:39:44;8.30;99.90
10702;DHT22;5402;50.004;8.246;2024-03-07T11:42:25;8.60;99.90
10702;DHT22;5402;50.004;8.246;2024-03-07T11:44:52;8.60;99.90
10702;DHT22;5402;50.004;8.246;2024-03-07T11:47:21;9.50;99.90
10702;DHT22;5402;50.004;8.246;2024-03-07T11:49:49;9.10;99.90
10702;DHT22;5402;50.004;8.246;2024-03-07T11:52:18;9.30;99.90
10702;DHT22;5402;50.004;8.246;2024-03-07T11:54:46;9.50;99.90
10702;DHT22;5402;50.004;8.246;2024-03-07T11:57:15;9.70;99.90
10702;DHT22;5402;50.004;8.246;2024-03-07T11:59:42;9.80;99.90
10702;DHT22;5402;50.004;8.246;2024-03-07T12:02:11;9.90;99.90
10702;DHT22;5402;50.004;8.246;2024-03-07T12:04:39;9.70;99.90
10702;DHT22;5402;50.004;8.246;2024-03-07T12:07:06;9.50;99.90
10702;DHT22;5402;50.004;8.246;2024-03-07T12:09:36;9.10;99.90
10702;DHT22;5402;50.004;8.246;2024-03-07T12:12:05;9.00;99.90
10702;DHT22;5402;50.004;8.246;2024-03-07T12:14:32;8.80;99.90
10702;DHT22;5402;50.004;8.246;2024-03-07T12:17:00;8.60;99.90
10702;DHT22;5402;50.004;8.246;2024-03-07T12:19:27;8.50;99.90
10702;DHT22;5402;50.004;8.246;2024-03-07T12:21:56;8.40;99.90
10702;DHT22;5402;50.004;8.246;2024-03-07T12:24:24;8.30;99.90
10702;DHT22;5402;50.004;8.246;2024-03-07T12:26:50;8.30;99.90
10702;DHT22;5402;50.004;8.246;2024-03-07T12:29:25;8.40;99.90
10702;DHT22;5402;50.004;8.246;2024-03-07T12:31:52;8.40;99.90
10702;DHT22;5402;50.004;8.246;2024-03-07T12:34:20;8.50;99.90
10702;DHT22;5402;50.004;8.246;2024-03-07T12:36:47;8.60;99.90
10702;DHT22;5402;50.004;8.246;2024-03-07T12:39:22;8.50;99.90
10702;DHT22;5402;50.004;8.246;2024-03-07T12:41:51;8.60;99.90
10702;DHT22;5402;50.004;8.246;2024-03-07T12:44:21;8.70;99.90
10702;DHT22;5402;50.004;8.246;2024-03-07T12:46:48;8.70;99.90
10702;DHT22;5402;50.004;8.246;2024-03-07T12:49:19;8.80;99.90
10702;DHT22;5402;50.004;8.246;2024-03-07T12:51:45;8.80;99.90
10702;DHT22;5402;50.004;8.246;2024-03-07T12:54:12;8.80;99.90
10702;DHT22;5402;50.004;8.246;2024-03-07T12:56:39;9.00;99.90
10702;DHT22;5402;50.004;8.246;2024-03-07T12:59:06;9.20;99.90
10702;DHT22;5402;50.004;8.246;2024-03-07T13:01:36;9.20;99.90
10702;DHT22;5402;50.004;8.246;2024-03-07T13:04:05;9.30;99.90
10702;DHT22;5402;50.004;8.246;2024-03-07T13:06:33;9.20;99.90
10702;DHT22;5402;50.004;8.246;2024-03-07T13:09:00;9.20;99.90
10702;DHT22;5402;50.004;8.246;2024-03-07T13:11:27;9.20;99.90
10702;DHT22;5402;50.004;8.246;2024-03-07T13:13:55;9.20;99.90
10702;DHT22;5402;50.004;8.246;2024-03-07T13:16:23;9.30;99.90
10702;DHT22;5402;50.004;8.246;2024-03-07T13:18:54;9.30;99.90
10702;DHT22;5402;50.004;8.246;2024-03-07T13:21:21;9.30;99.90
10702;DHT22;5402;50.004;8.246;2024-03-07T13:23:48;9.50;99.90
10702;DHT22;5402;50.004;8.246;2024-03-07T13:26:17;9.40;99.90
10702;DHT22;5402;50.004;8.246;2024-03-07T13:28:49;9.50;99.90
10702;DHT22;5402;50.004;8.246;2024-03-07T13:31:16;9.50;99.90
10702;DHT22;5402;50.004;8.246;2024-03-07T13:49:15;9.80;99.90
10702;DHT22;5402;50.004;8.246;2024-03-07T13:51:43;9.90;99.90
10702;DHT22;5402;50.004;8.246;2024-03-07T13:54:18;10.00;99.90
10702;DHT22;5402;50.004;8.246;2024-03-07T13:57:19;9.90;99.90
10702;DHT22;5402;50.004;8.246;2024-03-07T14:00:00;9.90;99.90
10702;DHT22;5402;50.004;8.246;2024-03-07T14:03:39;9.90;99.90
10702;DHT22;5402;50.004;8.246;2024-03-07T14:06:21;9.80;99.90
10702;DHT22;5402;50.004;8.246;2024-03-07T14:09:23;9.80;99.90
10702;DHT22;5402;50.004;8.246;2024-03-07T14:24:50;9.90;99.90
10702;DHT22;5402;50.004;8.246;2024-03-07T14:27:30;9.80;99.90
10702;DHT22;5402;50.004;8.246;2024-03-07T14:30:20;9.90;99.90
10702;DHT22;5402;50.004;8.246;2024-03-07T14:32:49;9.90;99.90
10702;DHT22;5402;50.004;8.246;2024-03-07T14:35:23;9.90;99.90
10702;DHT22;5402;50.004;8.246;2024-03-07T14:37:55;9.80;99.90
10702;DHT22;5402;50.004;8.246;2024-03-07T14:40:28;9.90;99.90
10702;DHT22;5402;50.004;8.246;2024-03-07T14:42:57;9.80;99.90
10702;DHT22;5402;50.004;8.246;2024-03-07T14:45:31;9.70;99.90
10702;DHT22;5402;50.004;8.246;2024-03-07T14:47:58;9.60;99.90
10702;DHT22;5402;50.004;8.246;2024-03-07T14:50:27;9.60;99.90
10702;DHT22;5402;50.004;8.246;2024-03-07T14:52:56;9.60;99.90
10702;DHT22;5402;50.004;8.246;2024-03-07T14:55:23;9.60;99.90
10702;DHT22;5402;50.004;8.246;2024-03-07T14:57:50;9.60;99.90
10702;DHT22;5402;50.004;8.246;2024-03-07T15:00:19;9.60;99.90
10702;DHT22;5402;50.004;8.246;2024-03-07T15:02:52;9.60;99.90
10702;DHT22;5402;50.004;8.246;2024-03-07T15:05:22;9.50;99.90
10702;DHT22;5402;50.004;8.246;2024-03-07T15:07:49;9.40;99.90
10702;DHT22;5402;50.004;8.246;2024-03-07T15:10:19;9.40;99.90
10702;DHT22;5402;50.004;8.246;2024-03-07T15:12:47;9.40;99.90
10702;DHT22;5402;50.004;8.246;2024-03-07T15:15:15;9.40;99.90
10702;DHT22;5402;50.004;8.246;2024-03-07T15:17:44;9.40;99.90
10702;DHT22;5402;50.004;8.246;2024-03-07T15:20:12;9.40;99.90
10702;DHT22;5402;50.004;8.246;2024-03-07T15:22:48;9.40;99.90
10702;DHT22;5402;50.004;8.246;2024-03-07T15:25:15;9.40;99.90
10702;DHT22;5402;50.004;8.246;2024-03-07T15:27:44;9.50;99.90
10702;DHT22;5402;50.004;8.246;2024-03-07T15:30:14;9.40;99.90
10702;DHT22;5402;50.004;8.246;2024-03-07T15:32:41;9.40;99.90
10702;DHT22;5402;50.004;8.246;2024-03-07T15:35:08;9.40;99.90
10702;DHT22;5402;50.004;8.246;2024-03-07T15:37:38;9.40;99.90
10702;DHT22;5402;50.004;8.246;2024-03-07T15:40:07;9.30;99.90
10702;DHT22;5402;50.004;8.246;2024-03-07T15:42:37;9.20;99.90
10702;DHT22;5402;50.004;8.246;2024-03-07T15:45:07;9.10;99.90
10702;DHT22;5402;50.004;8.246;2024-03-07T15:47:42;9.10;99.90
10702;DHT22;5402;50.004;8.246;2024-03-07T15:50:10;9.10;99.90
10702;DHT22;5402;50.004;8.246;2024-03-07T15:52:38;9.00;99.90
10702;DHT22;5402;50.004;8.246;2024-03-07T15:55:06;9.00;99.90
10702;DHT22;5402;50.004;8.246;2024-03-07T15:57:41;9.00;99.90
10702;DHT22;5402;50.004;8.246;2024-03-07T16:00:11;9.00;99.90
10702;DHT22;5402;50.004;8.246;2024-03-07T16:02:49;9.00;99.90
10702;DHT22;5402;50.004;8.246;2024-03-07T16:05:16;9.00;99.90
10702;DHT22;5402;50.004;8.246;2024-03-07T16:07:45;8.90;99.90
10702;DHT22;5402;50.004;8.246;2024-03-07T16:10:12;9.00;99.90
10702;DHT22;5402;50.004;8.246;2024-03-07T16:12:40;9.20;99.90
10702;DHT22;5402;50.004;8.246;2024-03-07T16:15:09;8.90;99.90
10702;DHT22;5402;50.004;8.246;2024-03-07T16:17:36;8.90;99.90
10702;DHT22;5402;50.004;8.246;2024-03-07T16:20:04;8.90;99.90
10702;DHT22;5402;50.004;8.246;2024-03-07T16:22:38;9.00;99.90
10702;DHT22;5402;50.004;8.246;2024-03-07T16:25:07;8.90;99.90
10702;DHT22;5402;50.004;8.246;2024-03-07T16:27:33;8.90;99.90
10702;DHT22;5402;50.004;8.246;2024-03-07T16:30:02;8.90;99.90
10702;DHT22;5402;50.004;8.246;2024-03-07T16:32:33;8.80;99.90
10702;DHT22;5402;50.004;8.246;2024-03-07T16:35:02;8.80;99.90
10702;DHT22;5402;50.004;8.246;2024-03-07T16:37:36;8.80;99.90
10702;DHT22;5402;50.004;8.246;2024-03-07T16:40:06;9.60;99.90
10702;DHT22;5402;50.004;8.246;2024-03-07T16:42:34;8.80;99.90